sensor_id;sensor_type;location;lat;lon;timestamp;P1;durP1;ratioP1;P2;durP2;ratioP2
4786;SDS011;62338;48.832;9.422;2022-08-11T04:08:34;6.50;;;2.60;;
4786;SDS011;62338;48.832;9.422;2022-08-11T04:11:13;4.30;;;2.70;;
4786;SDS011;62338;48.832;9.422;2022-08-11T04:36:56;6.20;;;2.77;;
4786;SDS011;62338;48.832;9.422;2022-08-11T04:39:42;4.63;;;2.63;;
4786;SDS011;62338;48.832;9.422;2022-08-11T04:45:34;6.23;;;3.10;;
4786;SDS011;62338;48.832;9.422;2022-08-11T04:53:28;13.03;;;3.10;;
4786;SDS011;62338;48.832;9.422;2022-08-11T05:06:49;4.80;;;2.83;;
4786;SDS011;62338;48.832;9.422;2022-08-11T05:13:45;5.40;;;3.30;;
4786;SDS011;62338;48.832;9.422;2022-08-11T05:16:12;4.60;;;2.90;;
4786;SDS011;62338;48.832;9.422;2022-08-11T05:18:36;5.27;;;3.00;;
4786;SDS011;62338;48.832;9.422;2022-08-11T05:21:21;9.60;;;3.23;;
4786;SDS011;62338;48.832;9.422;2022-08-11T05:23:48;7.77;;;3.30;;
4786;SDS011;62338;48.832;9.422;2022-08-11T05:26:21;6.40;;;2.80;;
4786;SDS011;62338;48.832;9.422;2022-08-11T05:28:53;4.70;;;2.97;;
4786;SDS011;62338;48.832;9.422;2022-08-11T05:31:22;6.47;;;2.80;;
4786;SDS011;62338;48.832;9.422;2022-08-11T05:34:08;5.47;;;3.20;;
4786;SDS011;62338;48.832;9.422;2022-08-11T05:37:07;6.30;;;3.20;;
4786;SDS011;62338;48.832;9.422;2022-08-11T05:39:37;10.17;;;3.40;;
4786;SDS011;62338;48.832;9.422;2022-08-11T05:42:09;6.30;;;3.27;;
4786;SDS011;62338;48.832;9.422;2022-08-11T05:44:31;5.60;;;2.97;;
4786;SDS011;62338;48.832;9.422;2022-08-11T05:46:56;5.43;;;2.77;;
4786;SDS011;62338;48.832;9.422;2022-08-11T05:49:16;6.50;;;3.27;;
4786;SDS011;62338;48.832;9.422;2022-08-11T05:51:40;5.57;;;3.13;;
4786;SDS011;62338;48.832;9.422;2022-08-11T05:54:16;4.33;;;2.87;;
4786;SDS011;62338;48.832;9.422;2022-08-11T05:56:44;6.47;;;3.37;;
4786;SDS011;62338;48.832;9.422;2022-08-11T05:58:51;5.30;;;3.00;;
4786;SDS011;62338;48.832;9.422;2022-08-11T06:00:55;7.80;;;3.67;;
4786;SDS011;62338;48.832;9.422;2022-08-11T06:02:57;7.83;;;3.50;;
4786;SDS011;62338;48.832;9.422;2022-08-11T06:05:08;8.70;;;3.30;;
4786;SDS011;62338;48.832;9.422;2022-08-11T06:07:13;7.10;;;3.00;;
4786;SDS011;62338;48.832;9.422;2022-08-11T06:09:25;6.17;;;3.30;;
4786;SDS011;62338;48.832;9.422;2022-08-11T06:11:38;8.30;;;3.40;;
4786;SDS011;62338;48.832;9.422;2022-08-11T06:13:53;8.77;;;3.40;;
4786;SDS011;62338;48.832;9.422;2022-08-11T06:15:58;5.97;;;3.33;;
4786;SDS011;62338;48.832;9.422;2022-08-11T06:18:08;9.50;;;4.10;;
4786;SDS011;62338;48.832;9.422;2022-08-11T06:20:14;5.07;;;3.30;;
4786;SDS011;62338;48.832;9.422;2022-08-11T06:22:20;5.43;;;3.83;;
4786;SDS011;62338;48.832;9.422;2022-08-11T06:24:25;6.37;;;3.40;;
4786;SDS011;62338;48.832;9.422;2022-08-11T06:26:33;11.80;;;3.50;;
4786;SDS011;62338;48.832;9.422;2022-08-11T06:29:02;6.10;;;3.10;;
4786;SDS011;62338;48.832;9.422;2022-08-11T06:31:11;10.70;;;4.03;;
4786;SDS011;62338;48.832;9.422;2022-08-11T06:33:18;5.30;;;2.97;;
4786;SDS011;62338;48.832;9.422;2022-08-11T06:40:11;8.20;;;2.90;;
4786;SDS011;62338;48.832;9.422;2022-08-11T06:42:52;4.83;;;2.77;;
4786;SDS011;62338;48.832;9.422;2022-08-11T06:45:00;5.40;;;3.63;;
4786;SDS011;62338;48.832;9.422;2022-08-11T06:47:13;7.60;;;3.30;;
4786;SDS011;62338;48.832;9.422;2022-08-11T06:49:19;11.20;;;3.53;;
4786;SDS011;62338;48.832;9.422;2022-08-11T06:51:47;4.50;;;3.00;;
4786;SDS011;62338;48.832;9.422;2022-08-11T06:53:53;8.13;;;4.30;;
4786;SDS011;62338;48.832;9.422;2022-08-11T06:56:05;10.00;;;3.47;;
4786;SDS011;62338;48.832;9.422;2022-08-11T06:58:36;8.53;;;3.37;;
4786;SDS011;62338;48.832;9.422;2022-08-11T07:01:11;7.83;;;3.50;;
4786;SDS011;62338;48.832;9.422;2022-08-11T07:03:18;8.77;;;3.90;;
4786;SDS011;62338;48.832;9.422;2022-08-11T07:06:05;6.97;;;3.90;;
4786;SDS011;62338;48.832;9.422;2022-08-11T07:08:12;6.30;;;3.53;;
4786;SDS011;62338;48.832;9.422;2022-08-11T07:13:45;6.72;;;3.13;;
4786;SDS011;62338;48.832;9.422;2022-08-11T07:16:15;9.88;;;3.78;;
4786;SDS011;62338;48.832;9.422;2022-08-11T07:18:34;4.82;;;2.90;;
4786;SDS011;62338;48.832;9.422;2022-08-11T07:21:05;8.32;;;3.25;;
4786;SDS011;62338;48.832;9.422;2022-08-11T07:23:54;6.88;;;3.60;;
4786;SDS011;62338;48.832;9.422;2022-08-11T07:26:19;7.25;;;2.97;;
4786;SDS011;62338;48.832;9.422;2022-08-11T07:28:44;5.32;;;3.03;;
4786;SDS011;62338;48.832;9.422;2022-08-11T07:31:08;7.50;;;3.20;;
4786;SDS011;62338;48.832;9.422;2022-08-11T07:33:18;4.82;;;2.72;;
4786;SDS011;62338;48.832;9.422;2022-08-11T07:35:48;7.65;;;2.90;;
4786;SDS011;62338;48.832;9.422;2022-08-11T07:37:57;7.20;;;2.90;;
4786;SDS011;62338;48.832;9.422;2022-08-11T07:40:08;5.78;;;3.05;;
4786;SDS011;62338;48.832;9.422;2022-08-11T07:42:14;4.72;;;2.90;;
4786;SDS011;62338;48.832;9.422;2022-08-11T07:44:26;4.95;;;2.58;;
4786;SDS011;62338;48.832;9.422;2022-08-11T07:46:39;5.38;;;2.42;;
4786;SDS011;62338;48.832;9.422;2022-08-11T07:49:04;5.15;;;2.75;;
4786;SDS011;62338;48.832;9.422;2022-08-11T07:51:27;6.13;;;2.53;;
4786;SDS011;62338;48.832;9.422;2022-08-11T07:55:59;5.43;;;2.95;;
4786;SDS011;62338;48.832;9.422;2022-08-11T07:58:06;10.57;;;3.28;;
4786;SDS011;62338;48.832;9.422;2022-08-11T08:00:48;5.47;;;3.08;;
4786;SDS011;62338;48.832;9.422;2022-08-11T08:03:22;6.55;;;2.88;;
4786;SDS011;62338;48.832;9.422;2022-08-11T08:05:55;5.53;;;2.75;;
4786;SDS011;62338;48.832;9.422;2022-08-11T08:08:36;9.02;;;2.63;;
4786;SDS011;62338;48.832;9.422;2022-08-11T08:11:02;6.35;;;3.05;;
4786;SDS011;62338;48.832;9.422;2022-08-11T08:13:28;5.50;;;2.67;;
4786;SDS011;62338;48.832;9.422;2022-08-11T08:15:53;7.18;;;3.05;;
4786;SDS011;62338;48.832;9.422;2022-08-11T08:18:19;6.03;;;2.53;;
4786;SDS011;62338;48.832;9.422;2022-08-11T08:20:31;5.43;;;2.85;;
4786;SDS011;62338;48.832;9.422;2022-08-11T08:22:51;4.88;;;2.90;;
4786;SDS011;62338;48.832;9.422;2022-08-11T08:24:59;5.63;;;2.72;;
4786;SDS011;62338;48.832;9.422;2022-08-11T08:27:03;9.73;;;2.85;;
4786;SDS011;62338;48.832;9.422;2022-08-11T08:29:06;4.72;;;2.58;;
4786;SDS011;62338;48.832;9.422;2022-08-11T08:31:27;7.75;;;2.45;;
4786;SDS011;62338;48.832;9.422;2022-08-11T08:33:30;8.77;;;2.72;;
4786;SDS011;62338;48.832;9.422;2022-08-11T08:35:35;6.35;;;2.90;;
4786;SDS011;62338;48.832;9.422;2022-08-11T08:37:56;4.72;;;3.03;;
4786;SDS011;62338;48.832;9.422;2022-08-11T08:40:00;5.85;;;2.42;;
4786;SDS011;62338;48.832;9.422;2022-08-11T08:42:06;4.72;;;2.50;;
4786;SDS011;62338;48.832;9.422;2022-08-11T08:44:11;6.63;;;3.00;;
4786;SDS011;62338;48.832;9.422;2022-08-11T08:46:40;8.65;;;4.45;;
4786;SDS011;62338;48.832;9.422;2022-08-11T08:48:47;7.25;;;2.60;;
4786;SDS011;62338;48.832;9.422;2022-08-11T08:51:00;6.20;;;2.70;;
4786;SDS011;62338;48.832;9.422;2022-08-11T08:53:50;12.80;;;2.47;;
4786;SDS011;62338;48.832;9.422;2022-08-11T08:56:00;5.57;;;2.47;;
4786;SDS011;62338;48.832;9.422;2022-08-11T08:58:10;6.55;;;2.30;;
4786;SDS011;62338;48.832;9.422;2022-08-11T09:00:18;3.88;;;2.00;;
4786;SDS011;62338;48.832;9.422;2022-08-11T09:02:24;4.10;;;2.10;;
4786;SDS011;62338;48.832;9.422;2022-08-11T09:04:35;8.98;;;2.50;;
4786;SDS011;62338;48.832;9.422;2022-08-11T09:06:39;5.45;;;2.78;;
4786;SDS011;62338;48.832;9.422;2022-08-11T09:08:54;4.05;;;2.63;;
4786;SDS011;62338;48.832;9.422;2022-08-11T09:11:03;5.53;;;2.25;;
4786;SDS011;62338;48.832;9.422;2022-08-11T09:13:27;6.22;;;2.30;;
4786;SDS011;62338;48.832;9.422;2022-08-11T09:15:28;6.25;;;2.30;;
4786;SDS011;62338;48.832;9.422;2022-08-11T09:17:39;5.00;;;2.20;;
4786;SDS011;62338;48.832;9.422;2022-08-11T09:19:45;6.53;;;2.70;;
4786;SDS011;62338;48.832;9.422;2022-08-11T09:21:56;6.78;;;2.50;;
4786;SDS011;62338;48.832;9.422;2022-08-11T09:24:20;6.07;;;2.30;;
4786;SDS011;62338;48.832;9.422;2022-08-11T09:26:42;5.60;;;2.50;;
4786;SDS011;62338;48.832;9.422;2022-08-11T09:29:12;8.15;;;2.50;;
4786;SDS011;62338;48.832;9.422;2022-08-11T09:31:15;4.03;;;2.10;;
4786;SDS011;62338;48.832;9.422;2022-08-11T09:33:22;5.93;;;2.13;;
4786;SDS011;62338;48.832;9.422;2022-08-11T09:35:25;4.72;;;2.45;;
4786;SDS011;62338;48.832;9.422;2022-08-11T09:37:30;8.77;;;2.50;;
4786;SDS011;62338;48.832;9.422;2022-08-11T09:39:56;4.30;;;2.03;;
4786;SDS011;62338;48.832;9.422;2022-08-11T09:42:19;7.65;;;2.42;;
4786;SDS011;62338;48.832;9.422;2022-08-11T09:44:24;4.95;;;2.42;;
4786;SDS011;62338;48.832;9.422;2022-08-11T09:46:49;3.40;;;2.00;;
4786;SDS011;62338;48.832;9.422;2022-08-11T09:48:57;11.77;;;2.42;;
4786;SDS011;62338;48.832;9.422;2022-08-11T09:51:00;4.22;;;2.03;;
4786;SDS011;62338;48.832;9.422;2022-08-11T09:53:04;4.00;;;2.28;;
4786;SDS011;62338;48.832;9.422;2022-08-11T09:55:28;5.18;;;2.40;;
4786;SDS011;62338;48.832;9.422;2022-08-11T09:57:39;9.25;;;2.35;;
4786;SDS011;62338;48.832;9.422;2022-08-11T10:00:05;3.70;;;2.00;;
4786;SDS011;62338;48.832;9.422;2022-08-11T10:02:14;4.07;;;2.30;;
4786;SDS011;62338;48.832;9.422;2022-08-11T10:04:22;4.40;;;2.25;;
4786;SDS011;62338;48.832;9.422;2022-08-11T10:06:44;4.32;;;2.20;;
4786;SDS011;62338;48.832;9.422;2022-08-11T10:09:05;4.82;;;2.10;;
4786;SDS011;62338;48.832;9.422;2022-08-11T10:11:10;7.18;;;2.28;;
4786;SDS011;62338;48.832;9.422;2022-08-11T10:13:17;4.78;;;2.13;;
4786;SDS011;62338;48.832;9.422;2022-08-11T10:15:48;5.15;;;2.33;;
4786;SDS011;62338;48.832;9.422;2022-08-11T10:18:17;3.80;;;2.15;;
4786;SDS011;62338;48.832;9.422;2022-08-11T10:20:42;5.30;;;2.10;;
4786;SDS011;62338;48.832;9.422;2022-08-11T10:22:52;6.00;;;2.30;;
4786;SDS011;62338;48.832;9.422;2022-08-11T10:25:12;5.32;;;2.28;;
4786;SDS011;62338;48.832;9.422;2022-08-11T10:27:37;5.93;;;2.22;;
4786;SDS011;62338;48.832;9.422;2022-08-11T10:30:02;5.35;;;2.40;;
4786;SDS011;62338;48.832;9.422;2022-08-11T10:32:29;6.78;;;2.10;;
4786;SDS011;62338;48.832;9.422;2022-08-11T10:35:00;4.95;;;2.30;;
4786;SDS011;62338;48.832;9.422;2022-08-11T10:37:11;3.92;;;2.17;;
4786;SDS011;62338;48.832;9.422;2022-08-11T10:39:19;4.93;;;2.13;;
4786;SDS011;62338;48.832;9.422;2022-08-11T10:41:22;4.25;;;2.08;;
4786;SDS011;62338;48.832;9.422;2022-08-11T10:44:05;4.10;;;2.17;;
4786;SDS011;62338;48.832;9.422;2022-08-11T10:46:11;4.00;;;2.33;;
4786;SDS011;62338;48.832;9.422;2022-08-11T10:48:35;5.47;;;2.28;;
4786;SDS011;62338;48.832;9.422;2022-08-11T10:50:44;4.75;;;2.20;;
4786;SDS011;62338;48.832;9.422;2022-08-11T10:53:07;5.63;;;2.25;;
4786;SDS011;62338;48.832;9.422;2022-08-11T10:55:28;3.30;;;2.00;;
4786;SDS011;62338;48.832;9.422;2022-08-11T10:57:50;7.05;;;2.28;;
4786;SDS011;62338;48.832;9.422;2022-08-11T11:00:12;4.75;;;2.03;;
4786;SDS011;62338;48.832;9.422;2022-08-11T11:02:18;3.60;;;2.03;;
4786;SDS011;62338;48.832;9.422;2022-08-11T11:04:28;4.93;;;2.30;;
4786;SDS011;62338;48.832;9.422;2022-08-11T11:06:55;5.70;;;2.25;;
4786;SDS011;62338;48.832;9.422;2022-08-11T11:09:05;4.55;;;2.50;;
4786;SDS011;62338;48.832;9.422;2022-08-11T11:11:13;10.07;;;2.50;;
4786;SDS011;62338;48.832;9.422;2022-08-11T11:13:19;3.80;;;2.20;;
4786;SDS011;62338;48.832;9.422;2022-08-11T11:15:55;4.95;;;2.30;;
4786;SDS011;62338;48.832;9.422;2022-08-11T11:18:28;4.47;;;2.22;;
4786;SDS011;62338;48.832;9.422;2022-08-11T11:22:50;7.35;;;2.67;;
4786;SDS011;62338;48.832;9.422;2022-08-11T11:27:28;6.90;;;2.20;;
4786;SDS011;62338;48.832;9.422;2022-08-11T11:29:50;7.63;;;2.13;;
4786;SDS011;62338;48.832;9.422;2022-08-11T11:32:31;5.25;;;2.30;;
4786;SDS011;62338;48.832;9.422;2022-08-11T11:37:17;6.47;;;2.10;;
4786;SDS011;62338;48.832;9.422;2022-08-11T11:39:25;3.58;;;2.00;;
4786;SDS011;62338;48.832;9.422;2022-08-11T11:41:28;3.58;;;2.05;;
4786;SDS011;62338;48.832;9.422;2022-08-11T11:43:30;3.50;;;2.13;;
4786;SDS011;62338;48.832;9.422;2022-08-11T11:45:43;4.88;;;2.05;;
4786;SDS011;62338;48.832;9.422;2022-08-11T11:47:48;4.55;;;2.20;;
4786;SDS011;62338;48.832;9.422;2022-08-11T11:49:54;6.57;;;2.25;;
4786;SDS011;62338;48.832;9.422;2022-08-11T11:51:57;6.18;;;2.15;;
4786;SDS011;62338;48.832;9.422;2022-08-11T11:54:03;3.92;;;2.25;;
4786;SDS011;62338;48.832;9.422;2022-08-11T11:56:10;5.90;;;2.10;;
4786;SDS011;62338;48.832;9.422;2022-08-11T11:58:18;5.88;;;2.20;;
4786;SDS011;62338;48.832;9.422;2022-08-11T12:00:40;5.50;;;2.30;;
4786;SDS011;62338;48.832;9.422;2022-08-11T12:03:07;3.92;;;2.30;;
4786;SDS011;62338;48.832;9.422;2022-08-11T12:05:12;6.65;;;2.40;;
4786;SDS011;62338;48.832;9.422;2022-08-11T12:07:19;3.42;;;2.00;;
4786;SDS011;62338;48.832;9.422;2022-08-11T12:10:05;7.38;;;2.10;;
4786;SDS011;62338;48.832;9.422;2022-08-11T12:12:08;4.13;;;1.85;;
4786;SDS011;62338;48.832;9.422;2022-08-11T12:14:29;7.60;;;2.17;;
4786;SDS011;62338;48.832;9.422;2022-08-11T12:16:34;3.55;;;1.83;;
4786;SDS011;62338;48.832;9.422;2022-08-11T12:18:39;4.13;;;2.00;;
4786;SDS011;62338;48.832;9.422;2022-08-11T12:20:43;4.60;;;2.33;;
4786;SDS011;62338;48.832;9.422;2022-08-11T12:22:46;4.97;;;2.55;;
4786;SDS011;62338;48.832;9.422;2022-08-11T12:25:08;4.45;;;2.30;;
4786;SDS011;62338;48.832;9.422;2022-08-11T12:27:29;7.03;;;2.10;;
4786;SDS011;62338;48.832;9.422;2022-08-11T12:29:37;5.38;;;1.90;;
4786;SDS011;62338;48.832;9.422;2022-08-11T12:31:44;3.80;;;2.20;;
4786;SDS011;62338;48.832;9.422;2022-08-11T12:33:59;8.80;;;2.00;;
4786;SDS011;62338;48.832;9.422;2022-08-11T12:36:09;5.93;;;2.25;;
4786;SDS011;62338;48.832;9.422;2022-08-11T12:38:16;5.47;;;2.10;;
4786;SDS011;62338;48.832;9.422;2022-08-11T12:40:31;5.45;;;2.08;;
4786;SDS011;62338;48.832;9.422;2022-08-11T12:43:15;4.30;;;2.30;;
4786;SDS011;62338;48.832;9.422;2022-08-11T12:45:40;3.28;;;1.95;;
4786;SDS011;62338;48.832;9.422;2022-08-11T12:47:48;4.70;;;2.15;;
4786;SDS011;62338;48.832;9.422;2022-08-11T12:50:33;3.95;;;2.28;;
4786;SDS011;62338;48.832;9.422;2022-08-11T12:52:54;3.83;;;2.03;;
4786;SDS011;62338;48.832;9.422;2022-08-11T12:59:47;3.22;;;1.60;;
4786;SDS011;62338;48.832;9.422;2022-08-11T13:02:11;5.57;;;1.88;;
4786;SDS011;62338;48.832;9.422;2022-08-11T13:04:41;3.42;;;1.83;;
4786;SDS011;62338;48.832;9.422;2022-08-11T13:07:05;7.35;;;1.83;;
4786;SDS011;62338;48.832;9.422;2022-08-11T13:09:07;3.58;;;1.90;;
4786;SDS011;62338;48.832;9.422;2022-08-11T13:11:17;3.65;;;2.00;;
4786;SDS011;62338;48.832;9.422;2022-08-11T13:13:57;3.78;;;2.03;;
4786;SDS011;62338;48.832;9.422;2022-08-11T13:16:01;4.65;;;2.00;;
4786;SDS011;62338;48.832;9.422;2022-08-11T13:18:06;7.90;;;1.95;;
4786;SDS011;62338;48.832;9.422;2022-08-11T13:20:12;3.05;;;1.90;;
4786;SDS011;62338;48.832;9.422;2022-08-11T13:22:20;4.47;;;2.00;;
4786;SDS011;62338;48.832;9.422;2022-08-11T13:24:26;3.35;;;2.03;;
4786;SDS011;62338;48.832;9.422;2022-08-11T13:26:35;6.25;;;1.90;;
4786;SDS011;62338;48.832;9.422;2022-08-11T13:28:50;3.60;;;1.77;;
4786;SDS011;62338;48.832;9.422;2022-08-11T13:30:59;5.05;;;2.10;;
4786;SDS011;62338;48.832;9.422;2022-08-11T13:33:16;10.98;;;2.25;;
4786;SDS011;62338;48.832;9.422;2022-08-11T13:35:20;3.38;;;2.05;;
4786;SDS011;62338;48.832;9.422;2022-08-11T13:37:23;3.55;;;1.80;;
4786;SDS011;62338;48.832;9.422;2022-08-11T13:39:51;5.53;;;1.95;;
4786;SDS011;62338;48.832;9.422;2022-08-11T13:42:03;3.38;;;1.83;;
4786;SDS011;62338;48.832;9.422;2022-08-11T13:44:23;6.60;;;1.90;;
4786;SDS011;62338;48.832;9.422;2022-08-11T13:46:27;3.83;;;1.80;;
4786;SDS011;62338;48.832;9.422;2022-08-11T13:48:31;3.33;;;1.70;;
4786;SDS011;62338;48.832;9.422;2022-08-11T13:50:35;5.15;;;1.90;;
4786;SDS011;62338;48.832;9.422;2022-08-11T13:53:01;3.70;;;1.92;;
4786;SDS011;62338;48.832;9.422;2022-08-11T13:55:04;4.15;;;2.00;;
4786;SDS011;62338;48.832;9.422;2022-08-11T13:57:12;2.90;;;2.00;;
4786;SDS011;62338;48.832;9.422;2022-08-11T13:59:45;3.78;;;1.60;;
4786;SDS011;62338;48.832;9.422;2022-08-11T14:02:01;3.50;;;1.80;;
4786;SDS011;62338;48.832;9.422;2022-08-11T14:04:29;2.80;;;1.85;;
4786;SDS011;62338;48.832;9.422;2022-08-11T14:06:44;4.00;;;2.40;;
4786;SDS011;62338;48.832;9.422;2022-08-11T14:08:54;3.63;;;2.22;;
4786;SDS011;62338;48.832;9.422;2022-08-11T14:11:09;3.20;;;2.10;;
4786;SDS011;62338;48.832;9.422;2022-08-11T14:13:53;3.03;;;1.63;;
4786;SDS011;62338;48.832;9.422;2022-08-11T14:16:02;10.25;;;1.92;;
4786;SDS011;62338;48.832;9.422;2022-08-11T14:18:19;2.90;;;2.08;;
4786;SDS011;62338;48.832;9.422;2022-08-11T14:20:25;3.28;;;1.88;;
4786;SDS011;62338;48.832;9.422;2022-08-11T14:22:54;5.47;;;2.08;;
4786;SDS011;62338;48.832;9.422;2022-08-11T14:25:00;3.30;;;1.80;;
4786;SDS011;62338;48.832;9.422;2022-08-11T14:27:05;3.42;;;2.13;;
4786;SDS011;62338;48.832;9.422;2022-08-11T14:29:32;2.80;;;1.60;;
4786;SDS011;62338;48.832;9.422;2022-08-11T14:31:59;5.07;;;1.90;;
4786;SDS011;62338;48.832;9.422;2022-08-11T14:34:05;3.85;;;1.88;;
4786;SDS011;62338;48.832;9.422;2022-08-11T14:36:10;7.07;;;2.40;;
4786;SDS011;62338;48.832;9.422;2022-08-11T14:38:16;4.72;;;2.05;;
4786;SDS011;62338;48.832;9.422;2022-08-11T14:40:19;3.22;;;1.60;;
4786;SDS011;62338;48.832;9.422;2022-08-11T14:42:40;7.05;;;1.70;;
4786;SDS011;62338;48.832;9.422;2022-08-11T14:45:03;3.42;;;1.90;;
4786;SDS011;62338;48.832;9.422;2022-08-11T14:47:50;7.32;;;1.92;;
4786;SDS011;62338;48.832;9.422;2022-08-11T14:49:57;3.45;;;1.73;;
4786;SDS011;62338;48.832;9.422;2022-08-11T14:52:13;5.22;;;1.90;;
4786;SDS011;62338;48.832;9.422;2022-08-11T14:54:18;3.90;;;2.00;;
4786;SDS011;62338;48.832;9.422;2022-08-11T14:56:38;3.38;;;1.80;;
4786;SDS011;62338;48.832;9.422;2022-08-11T14:58:41;4.97;;;2.13;;
4786;SDS011;62338;48.832;9.422;2022-08-11T15:00:43;3.60;;;1.70;;
4786;SDS011;62338;48.832;9.422;2022-08-11T15:02:46;6.03;;;2.10;;
4786;SDS011;62338;48.832;9.422;2022-08-11T15:05:11;4.53;;;2.13;;
4786;SDS011;62338;48.832;9.422;2022-08-11T15:07:13;5.25;;;1.92;;
4786;SDS011;62338;48.832;9.422;2022-08-11T15:09:18;3.95;;;2.03;;
4786;SDS011;62338;48.832;9.422;2022-08-11T15:11:24;5.18;;;1.98;;
4786;SDS011;62338;48.832;9.422;2022-08-11T15:13:48;9.15;;;2.10;;
4786;SDS011;62338;48.832;9.422;2022-08-11T15:15:51;4.10;;;2.10;;
4786;SDS011;62338;48.832;9.422;2022-08-11T15:18:13;4.82;;;2.35;;
4786;SDS011;62338;48.832;9.422;2022-08-11T15:20:17;3.75;;;2.55;;
4786;SDS011;62338;48.832;9.422;2022-08-11T15:22:41;3.75;;;2.15;;
4786;SDS011;62338;48.832;9.422;2022-08-11T15:25:01;3.75;;;2.03;;
4786;SDS011;62338;48.832;9.422;2022-08-11T15:27:13;3.80;;;2.08;;
4786;SDS011;62338;48.832;9.422;2022-08-11T15:29:38;5.53;;;1.75;;
4786;SDS011;62338;48.832;9.422;2022-08-11T15:32:02;7.60;;;2.10;;
4786;SDS011;62338;48.832;9.422;2022-08-11T15:34:23;3.63;;;2.10;;
4786;SDS011;62338;48.832;9.422;2022-08-11T15:36:57;4.18;;;1.88;;
4786;SDS011;62338;48.832;9.422;2022-08-11T15:39:22;5.60;;;1.80;;
4786;SDS011;62338;48.832;9.422;2022-08-11T15:41:36;4.80;;;2.10;;
4786;SDS011;62338;48.832;9.422;2022-08-11T15:44:05;5.53;;;2.00;;
4786;SDS011;62338;48.832;9.422;2022-08-11T15:46:50;5.35;;;2.20;;
4786;SDS011;62338;48.832;9.422;2022-08-11T15:51:15;6.05;;;2.13;;
4786;SDS011;62338;48.832;9.422;2022-08-11T15:53:27;4.55;;;2.20;;
4786;SDS011;62338;48.832;9.422;2022-08-11T15:55:41;5.90;;;3.03;;
4786;SDS011;62338;48.832;9.422;2022-08-11T15:57:46;3.33;;;1.83;;
4786;SDS011;62338;48.832;9.422;2022-08-11T16:00:08;5.25;;;1.90;;
4786;SDS011;62338;48.832;9.422;2022-08-11T16:02:28;4.22;;;2.63;;
4786;SDS011;62338;48.832;9.422;2022-08-11T16:04:50;4.30;;;2.25;;
4786;SDS011;62338;48.832;9.422;2022-08-11T16:09:05;8.38;;;2.38;;
4786;SDS011;62338;48.832;9.422;2022-08-11T16:11:18;5.00;;;2.20;;
4786;SDS011;62338;48.832;9.422;2022-08-11T16:13:21;5.10;;;2.20;;
4786;SDS011;62338;48.832;9.422;2022-08-11T16:15:24;8.10;;;4.25;;
4786;SDS011;62338;48.832;9.422;2022-08-11T16:17:50;3.83;;;2.10;;
4786;SDS011;62338;48.832;9.422;2022-08-11T16:19:54;5.03;;;2.00;;
4786;SDS011;62338;48.832;9.422;2022-08-11T16:21:59;3.78;;;1.85;;
4786;SDS011;62338;48.832;9.422;2022-08-11T16:24:06;3.70;;;2.20;;
4786;SDS011;62338;48.832;9.422;2022-08-11T16:26:31;7.28;;;2.38;;
4786;SDS011;62338;48.832;9.422;2022-08-11T16:28:57;4.25;;;2.10;;
4786;SDS011;62338;48.832;9.422;2022-08-11T16:31:02;3.85;;;1.60;;
4786;SDS011;62338;48.832;9.422;2022-08-11T16:33:10;8.48;;;2.05;;
4786;SDS011;62338;48.832;9.422;2022-08-11T16:35:34;12.20;;;2.45;;
4786;SDS011;62338;48.832;9.422;2022-08-11T16:37:57;7.53;;;2.08;;
4786;SDS011;62338;48.832;9.422;2022-08-11T16:40:20;5.32;;;2.50;;
4786;SDS011;62338;48.832;9.422;2022-08-11T16:42:22;3.78;;;2.10;;
4786;SDS011;62338;48.832;9.422;2022-08-11T16:45:03;4.90;;;2.10;;
4786;SDS011;62338;48.832;9.422;2022-08-11T16:47:24;3.72;;;1.85;;
4786;SDS011;62338;48.832;9.422;2022-08-11T16:49:48;5.82;;;2.55;;
4786;SDS011;62338;48.832;9.422;2022-08-11T16:51:53;5.50;;;2.15;;
4786;SDS011;62338;48.832;9.422;2022-08-11T16:53:56;6.22;;;2.72;;
4786;SDS011;62338;48.832;9.422;2022-08-11T16:56:07;6.85;;;2.95;;
4786;SDS011;62338;48.832;9.422;2022-08-11T16:58:12;4.82;;;2.70;;
4786;SDS011;62338;48.832;9.422;2022-08-11T17:00:33;4.60;;;2.38;;
4786;SDS011;62338;48.832;9.422;2022-08-11T17:02:48;7.30;;;2.30;;
4786;SDS011;62338;48.832;9.422;2022-08-11T17:05:12;3.67;;;2.22;;
4786;SDS011;62338;48.832;9.422;2022-08-11T17:07:40;4.93;;;1.98;;
4786;SDS011;62338;48.832;9.422;2022-08-11T17:10:03;3.90;;;2.30;;
4786;SDS011;62338;48.832;9.422;2022-08-11T17:12:46;4.22;;;2.30;;
4786;SDS011;62338;48.832;9.422;2022-08-11T17:15:15;3.55;;;2.05;;
4786;SDS011;62338;48.832;9.422;2022-08-11T17:17:38;6.13;;;1.73;;
4786;SDS011;62338;48.832;9.422;2022-08-11T17:19:43;4.35;;;2.10;;
4786;SDS011;62338;48.832;9.422;2022-08-11T17:22:11;6.45;;;2.17;;
4786;SDS011;62338;48.832;9.422;2022-08-11T17:24:36;5.13;;;2.30;;
4786;SDS011;62338;48.832;9.422;2022-08-11T17:26:41;5.25;;;2.10;;
4786;SDS011;62338;48.832;9.422;2022-08-11T17:28:58;4.50;;;2.10;;
4786;SDS011;62338;48.832;9.422;2022-08-11T17:31:02;4.65;;;2.20;;
4786;SDS011;62338;48.832;9.422;2022-08-11T17:33:24;4.38;;;2.28;;
4786;SDS011;62338;48.832;9.422;2022-08-11T17:35:45;6.55;;;2.00;;
4786;SDS011;62338;48.832;9.422;2022-08-11T17:37:48;4.50;;;2.08;;
4786;SDS011;62338;48.832;9.422;2022-08-11T17:39:51;3.97;;;2.33;;
4786;SDS011;62338;48.832;9.422;2022-08-11T17:41:58;4.75;;;2.10;;
4786;SDS011;62338;48.832;9.422;2022-08-11T17:44:19;6.40;;;2.40;;
4786;SDS011;62338;48.832;9.422;2022-08-11T17:46:39;9.57;;;2.40;;
4786;SDS011;62338;48.832;9.422;2022-08-11T17:49:07;5.50;;;2.00;;
4786;SDS011;62338;48.832;9.422;2022-08-11T17:51:13;6.80;;;2.42;;
4786;SDS011;62338;48.832;9.422;2022-08-11T17:53:41;5.15;;;2.10;;
4786;SDS011;62338;48.832;9.422;2022-08-11T17:56:23;5.35;;;2.58;;
4786;SDS011;62338;48.832;9.422;2022-08-11T17:58:45;9.25;;;2.55;;
4786;SDS011;62338;48.832;9.422;2022-08-11T18:01:09;10.73;;;2.63;;
4786;SDS011;62338;48.832;9.422;2022-08-11T18:03:12;4.03;;;2.50;;
4786;SDS011;62338;48.832;9.422;2022-08-11T18:05:33;4.53;;;2.47;;
4786;SDS011;62338;48.832;9.422;2022-08-11T18:07:37;10.95;;;2.38;;
4786;SDS011;62338;48.832;9.422;2022-08-11T18:10:01;6.78;;;2.25;;
4786;SDS011;62338;48.832;9.422;2022-08-11T18:12:23;5.37;;;2.47;;
4786;SDS011;62338;48.832;9.422;2022-08-11T18:14:46;4.57;;;2.23;;
4786;SDS011;62338;48.832;9.422;2022-08-11T18:17:10;4.43;;;2.40;;
4786;SDS011;62338;48.832;9.422;2022-08-11T18:19:31;5.90;;;2.60;;
4786;SDS011;62338;48.832;9.422;2022-08-11T18:21:54;4.60;;;2.40;;
4786;SDS011;62338;48.832;9.422;2022-08-11T18:24:25;4.57;;;2.50;;
4786;SDS011;62338;48.832;9.422;2022-08-11T18:26:49;10.03;;;2.97;;
4786;SDS011;62338;48.832;9.422;2022-08-11T18:29:13;6.70;;;2.80;;
4786;SDS011;62338;48.832;9.422;2022-08-11T18:31:43;6.07;;;2.90;;
4786;SDS011;62338;48.832;9.422;2022-08-11T18:34:09;6.50;;;2.37;;
4786;SDS011;62338;48.832;9.422;2022-08-11T18:36:37;5.37;;;2.70;;
4786;SDS011;62338;48.832;9.422;2022-08-11T18:39:04;5.07;;;2.63;;
4786;SDS011;62338;48.832;9.422;2022-08-11T18:41:28;6.37;;;2.90;;
4786;SDS011;62338;48.832;9.422;2022-08-11T18:43:54;7.53;;;2.53;;
4786;SDS011;62338;48.832;9.422;2022-08-11T18:46:17;16.93;;;2.87;;
4786;SDS011;62338;48.832;9.422;2022-08-11T18:48:44;9.60;;;2.60;;
4786;SDS011;62338;48.832;9.422;2022-08-11T18:51:16;8.90;;;3.03;;
4786;SDS011;62338;48.832;9.422;2022-08-11T18:53:38;13.67;;;3.17;;
4786;SDS011;62338;48.832;9.422;2022-08-11T18:56:01;5.70;;;2.50;;
4786;SDS011;62338;48.832;9.422;2022-08-11T18:58:24;6.40;;;2.50;;
4786;SDS011;62338;48.832;9.422;2022-08-11T19:00:48;7.57;;;2.60;;
4786;SDS011;62338;48.832;9.422;2022-08-11T19:03:11;10.07;;;2.20;;
4786;SDS011;62338;48.832;9.422;2022-08-11T19:05:49;12.10;;;2.50;;
4786;SDS011;62338;48.832;9.422;2022-08-11T19:08:38;5.70;;;2.53;;
4786;SDS011;62338;48.832;9.422;2022-08-11T19:11:00;3.90;;;2.20;;
4786;SDS011;62338;48.832;9.422;2022-08-11T19:13:23;8.37;;;2.97;;
4786;SDS011;62338;48.832;9.422;2022-08-11T19:15:47;7.30;;;2.50;;
4786;SDS011;62338;48.832;9.422;2022-08-11T19:18:11;4.47;;;2.50;;
4786;SDS011;62338;48.832;9.422;2022-08-11T19:20:33;6.90;;;2.50;;
4786;SDS011;62338;48.832;9.422;2022-08-11T19:22:55;4.80;;;2.50;;